Buttonwillow, CA

11:48 PM PDT on October 21, 2014 (GMT -0700)
Grand Island | Change Station
CLOSE
Current Station
Personal Weather Station
Location: Bakersfield, CA
Elevation: 361 ft
Nearby Weather Stations

Elev 361 ft 35.34 °N, 119.15 °W | Updated 6 minutes ago

Clear
Clear
58.6 °F
Feels Like 58.6 °F
N
0.0
Wind Variable Wind from SW
Gusts 0.0 mph

Today
High -- | Low -- °F
--% Chance of Precip.
Yesterday
High -- | Low -- °F
Precip. -- in
7:09 AM 6:14 PM
Waning Crescent, 3% visible
Pressure 30.01 in
Visibility 10.0 miles
Clouds Clear
Dew Point 48 °F
Humidity 67%
Rainfall 0.00 in
Snow Depth Not available.
UV 0 out of 12
Pollen 4.20 out of 12
Air Quality Not available.
Flu Activity Sporadic
METAR KBFL 220554Z AUTO 00000KT 10SM CLR 17/05 A3002 RMK AO2 SLP162 T01720050 10217 20161 53010

More Conditions Fewer Conditions

Pressure 30.01 in
Visibility 10.0 miles
Clouds Clear
Dew Point 48 °F
Humidity 67%
Rainfall 0.00 in
Snow Depth Not available.
UV 0 out of 12
Pollen 4.20 out of 12
Air Quality Not available.
Flu Activity Sporadic
METAR KBFL 220554Z AUTO 00000KT 10SM CLR 17/05 A3002 RMK AO2 SLP162 T01720050 10217 20161 53010

More Conditions Fewer Conditions

10-Day Weather Forecast

Almanac

Astronomy

Oct. 21, 2014 Rise Set
Actual Time 7:09 AM PDT 6:14 PM PDT
Civil Twilight 6:43 AM PDT 6:40 PM PDT
Nautical Twilight 6:13 AM PDT 7:10 PM PDT
Astronomical Twilight 5:44 AM PDT 7:39 PM PDT
Moon 5:02 AM PDT (10/21) 5:07 PM PDT (10/21)
Length of Visible Light 11h 57m
Length of Day
11h 05m
Tomorrow will be 2m 5s shorter.
Waning Crescent, 3% of the Moon is Illuminated
Oct 22
Waning Crescent
Oct 23
New
Oct 30
First Quarter
Nov 6
Full
Nov 14
Last Quarter

Community

WunderPhotos

Upload Photos

1,763,884 photos uploaded!

Nearby

Air Quality

  Air Quality AQ Index Pollutant
Tuesday Moderate
PM10
Wednesday Moderate
PM10
Thursday Moderate
PM10
Friday Moderate
PM10
Saturday Moderate
PM10
Sunday Moderate
PM10

Snow Depth

Station Depth Elevation
Virginia Lakes Ridge 0 in 9200 ft
Leavitt Lake 1 in 9400 ft
Sonora Pass 0 in 8800 ft
Leavitt Meadows 1 in 7200 ft
Summit Meadow 1 in 9122 ft

Earthquake Activity

City Distance Mag. Time & Date
Lone Pine, California 85 miles 2.6 5:26 AM PDT
2014-10-19
Minimum magnitude displayed is 2.5.

Coastal Water Temperatures

Place Temperature
No Stations Reporting

Nearby Weather Stations